sensor_id;sensor_type;location;lat;lon;timestamp;temperature;humidity
3416;DHT22;1721;51.238;9.562;2023-04-24T00:01:22;12.20;99.90
3416;DHT22;1721;51.238;9.562;2023-04-24T00:03:47;12.20;99.90
3416;DHT22;1721;51.238;9.562;2023-04-24T00:06:13;12.30;99.90
3416;DHT22;1721;51.238;9.562;2023-04-24T00:08:38;12.30;99.90
3416;DHT22;1721;51.238;9.562;2023-04-24T00:11:04;12.20;99.90
3416;DHT22;1721;51.238;9.562;2023-04-24T00:13:30;12.30;99.90
3416;DHT22;1721;51.238;9.562;2023-04-24T00:15:55;12.40;99.90
3416;DHT22;1721;51.238;9.562;2023-04-24T00:18:22;12.60;99.90
3416;DHT22;1721;51.238;9.562;2023-04-24T00:20:47;12.60;99.90
3416;DHT22;1721;51.238;9.562;2023-04-24T00:23:13;12.70;99.90
3416;DHT22;1721;51.238;9.562;2023-04-24T00:25:38;12.60;99.90
3416;DHT22;1721;51.238;9.562;2023-04-24T00:28:05;12.60;99.90
3416;DHT22;1721;51.238;9.562;2023-04-24T00:30:31;12.60;99.90
3416;DHT22;1721;51.238;9.562;2023-04-24T00:32:57;12.50;99.90
3416;DHT22;1721;51.238;9.562;2023-04-24T00:35:22;12.50;99.90
3416;DHT22;1721;51.238;9.562;2023-04-24T00:37:48;12.50;99.90
3416;DHT22;1721;51.238;9.562;2023-04-24T00:40:14;12.50;99.90
3416;DHT22;1721;51.238;9.562;2023-04-24T00:42:40;12.40;99.90
3416;DHT22;1721;51.238;9.562;2023-04-24T00:45:06;12.20;99.90
3416;DHT22;1721;51.238;9.562;2023-04-24T00:47:33;12.10;99.90
3416;DHT22;1721;51.238;9.562;2023-04-24T00:50:03;12.20;99.90
3416;DHT22;1721;51.238;9.562;2023-04-24T00:52:29;12.00;99.90
3416;DHT22;1721;51.238;9.562;2023-04-24T00:54:57;12.00;99.90
3416;DHT22;1721;51.238;9.562;2023-04-24T00:57:22;11.90;99.90
3416;DHT22;1721;51.238;9.562;2023-04-24T00:59:49;12.00;99.90
3416;DHT22;1721;51.238;9.562;2023-04-24T01:02:15;11.80;99.90
3416;DHT22;1721;51.238;9.562;2023-04-24T01:04:41;11.80;99.90
3416;DHT22;1721;51.238;9.562;2023-04-24T01:07:07;11.80;99.90
3416;DHT22;1721;51.238;9.562;2023-04-24T01:09:40;11.80;99.90
3416;DHT22;1721;51.238;9.562;2023-04-24T01:12:07;11.70;99.90
3416;DHT22;1721;51.238;9.562;2023-04-24T01:14:33;11.70;99.90
3416;DHT22;1721;51.238;9.562;2023-04-24T01:16:58;11.80;99.90
3416;DHT22;1721;51.238;9.562;2023-04-24T01:19:24;11.70;99.90
3416;DHT22;1721;51.238;9.562;2023-04-24T01:21:51;11.80;99.90
3416;DHT22;1721;51.238;9.562;2023-04-24T01:24:19;11.80;99.90
3416;DHT22;1721;51.238;9.562;2023-04-24T01:26:45;11.80;99.90
3416;DHT22;1721;51.238;9.562;2023-04-24T01:29:11;11.80;99.90
3416;DHT22;1721;51.238;9.562;2023-04-24T01:31:36;11.90;99.90
3416;DHT22;1721;51.238;9.562;2023-04-24T01:34:02;12.00;99.90
3416;DHT22;1721;51.238;9.562;2023-04-24T01:36:28;12.10;99.90
3416;DHT22;1721;51.238;9.562;2023-04-24T01:38:55;12.00;99.90
3416;DHT22;1721;51.238;9.562;2023-04-24T01:41:21;12.00;99.90
3416;DHT22;1721;51.238;9.562;2023-04-24T01:43:48;12.20;99.90
3416;DHT22;1721;51.238;9.562;2023-04-24T01:46:14;12.30;99.90
3416;DHT22;1721;51.238;9.562;2023-04-24T01:48:40;12.40;99.90
3416;DHT22;1721;51.238;9.562;2023-04-24T01:51:06;12.50;99.90
3416;DHT22;1721;51.238;9.562;2023-04-24T01:53:32;12.50;99.90
3416;DHT22;1721;51.238;9.562;2023-04-24T01:55:58;12.60;99.90
3416;DHT22;1721;51.238;9.562;2023-04-24T01:58:23;12.50;99.90
3416;DHT22;1721;51.238;9.562;2023-04-24T02:00:49;12.50;99.90
3416;DHT22;1721;51.238;9.562;2023-04-24T02:03:15;12.60;99.90
3416;DHT22;1721;51.238;9.562;2023-04-24T02:05:43;12.40;99.90
3416;DHT22;1721;51.238;9.562;2023-04-24T02:08:08;12.30;99.90
3416;DHT22;1721;51.238;9.562;2023-04-24T02:10:34;12.20;99.90
3416;DHT22;1721;51.238;9.562;2023-04-24T02:13:00;12.00;99.90
3416;DHT22;1721;51.238;9.562;2023-04-24T02:15:26;12.10;99.90
3416;DHT22;1721;51.238;9.562;2023-04-24T02:17:51;12.10;99.90
3416;DHT22;1721;51.238;9.562;2023-04-24T02:20:17;12.10;99.90
3416;DHT22;1721;51.238;9.562;2023-04-24T02:22:43;12.20;99.90
3416;DHT22;1721;51.238;9.562;2023-04-24T02:25:08;12.10;99.90
3416;DHT22;1721;51.238;9.562;2023-04-24T02:27:34;12.20;99.90
3416;DHT22;1721;51.238;9.562;2023-04-24T02:29:59;12.20;99.90
3416;DHT22;1721;51.238;9.562;2023-04-24T02:32:26;12.20;99.90
3416;DHT22;1721;51.238;9.562;2023-04-24T02:34:51;12.10;99.90
3416;DHT22;1721;51.238;9.562;2023-04-24T02:37:17;12.10;99.90
3416;DHT22;1721;51.238;9.562;2023-04-24T02:39:42;12.00;99.90
3416;DHT22;1721;51.238;9.562;2023-04-24T02:42:08;11.90;99.90
3416;DHT22;1721;51.238;9.562;2023-04-24T02:44:33;12.00;99.90
3416;DHT22;1721;51.238;9.562;2023-04-24T02:46:59;12.10;99.90
3416;DHT22;1721;51.238;9.562;2023-04-24T02:49:25;12.10;99.90
3416;DHT22;1721;51.238;9.562;2023-04-24T02:51:51;12.20;99.90
3416;DHT22;1721;51.238;9.562;2023-04-24T02:54:16;12.10;99.90
3416;DHT22;1721;51.238;9.562;2023-04-24T02:56:42;12.20;99.90
3416;DHT22;1721;51.238;9.562;2023-04-24T02:59:07;12.20;99.90
3416;DHT22;1721;51.238;9.562;2023-04-24T03:01:33;12.20;99.90
3416;DHT22;1721;51.238;9.562;2023-04-24T03:03:58;12.20;99.90
3416;DHT22;1721;51.238;9.562;2023-04-24T03:06:24;12.30;99.90
3416;DHT22;1721;51.238;9.562;2023-04-24T03:08:50;12.30;99.90
3416;DHT22;1721;51.238;9.562;2023-04-24T03:11:15;12.40;99.90
3416;DHT22;1721;51.238;9.562;2023-04-24T03:13:41;12.50;99.90
3416;DHT22;1721;51.238;9.562;2023-04-24T03:16:06;12.50;99.90
3416;DHT22;1721;51.238;9.562;2023-04-24T03:18:32;12.30;99.90
3416;DHT22;1721;51.238;9.562;2023-04-24T03:20:57;12.20;99.90
3416;DHT22;1721;51.238;9.562;2023-04-24T03:23:23;12.20;99.90
3416;DHT22;1721;51.238;9.562;2023-04-24T03:25:48;12.10;99.90
3416;DHT22;1721;51.238;9.562;2023-04-24T03:28:14;12.00;99.90
3416;DHT22;1721;51.238;9.562;2023-04-24T03:30:40;12.20;99.90
3416;DHT22;1721;51.238;9.562;2023-04-24T03:33:06;12.10;99.90
3416;DHT22;1721;51.238;9.562;2023-04-24T03:35:31;12.20;99.90
3416;DHT22;1721;51.238;9.562;2023-04-24T03:37:57;12.20;99.90
3416;DHT22;1721;51.238;9.562;2023-04-24T03:40:22;12.20;99.90
3416;DHT22;1721;51.238;9.562;2023-04-24T03:42:48;12.10;99.90
3416;DHT22;1721;51.238;9.562;2023-04-24T03:45:14;12.10;99.90
3416;DHT22;1721;51.238;9.562;2023-04-24T03:47:39;12.00;99.90
3416;DHT22;1721;51.238;9.562;2023-04-24T03:50:05;12.00;99.90
3416;DHT22;1721;51.238;9.562;2023-04-24T03:52:31;12.10;99.90
3416;DHT22;1721;51.238;9.562;2023-04-24T03:54:57;12.10;99.90
3416;DHT22;1721;51.238;9.562;2023-04-24T03:57:22;12.20;99.90
3416;DHT22;1721;51.238;9.562;2023-04-24T03:59:48;12.10;99.90
3416;DHT22;1721;51.238;9.562;2023-04-24T04:02:13;12.10;99.90
3416;DHT22;1721;51.238;9.562;2023-04-24T04:04:39;12.00;99.90
3416;DHT22;1721;51.238;9.562;2023-04-24T04:07:04;12.00;99.90
3416;DHT22;1721;51.238;9.562;2023-04-24T04:09:30;11.90;99.90
3416;DHT22;1721;51.238;9.562;2023-04-24T04:11:56;12.00;99.90
3416;DHT22;1721;51.238;9.562;2023-04-24T04:14:22;12.00;99.90
3416;DHT22;1721;51.238;9.562;2023-04-24T04:16:48;12.00;99.90
3416;DHT22;1721;51.238;9.562;2023-04-24T04:19:14;12.00;99.90
3416;DHT22;1721;51.238;9.562;2023-04-24T04:21:39;12.00;99.90
3416;DHT22;1721;51.238;9.562;2023-04-24T04:24:05;11.90;99.90
3416;DHT22;1721;51.238;9.562;2023-04-24T04:26:32;12.00;99.90
3416;DHT22;1721;51.238;9.562;2023-04-24T04:28:59;12.00;99.90
3416;DHT22;1721;51.238;9.562;2023-04-24T04:31:26;11.90;99.90
3416;DHT22;1721;51.238;9.562;2023-04-24T04:33:51;11.90;99.90
3416;DHT22;1721;51.238;9.562;2023-04-24T04:36:17;11.90;99.90
3416;DHT22;1721;51.238;9.562;2023-04-24T04:38:42;11.80;99.90
3416;DHT22;1721;51.238;9.562;2023-04-24T04:41:10;11.70;99.90
3416;DHT22;1721;51.238;9.562;2023-04-24T04:43:36;11.70;99.90
3416;DHT22;1721;51.238;9.562;2023-04-24T04:46:01;11.70;99.90
3416;DHT22;1721;51.238;9.562;2023-04-24T04:48:28;11.70;99.90
3416;DHT22;1721;51.238;9.562;2023-04-24T04:50:56;11.60;99.90
3416;DHT22;1721;51.238;9.562;2023-04-24T04:53:22;11.60;99.90
3416;DHT22;1721;51.238;9.562;2023-04-24T04:55:48;11.70;99.90
3416;DHT22;1721;51.238;9.562;2023-04-24T04:58:13;11.60;99.90
3416;DHT22;1721;51.238;9.562;2023-04-24T05:00:39;11.50;99.90
3416;DHT22;1721;51.238;9.562;2023-04-24T05:03:04;11.70;99.90
3416;DHT22;1721;51.238;9.562;2023-04-24T05:05:30;11.80;99.90
3416;DHT22;1721;51.238;9.562;2023-04-24T05:07:56;11.80;99.90
3416;DHT22;1721;51.238;9.562;2023-04-24T05:10:21;11.80;99.90
3416;DHT22;1721;51.238;9.562;2023-04-24T05:12:47;11.80;99.90
3416;DHT22;1721;51.238;9.562;2023-04-24T05:15:14;11.80;99.90
3416;DHT22;1721;51.238;9.562;2023-04-24T05:17:40;11.90;99.90
3416;DHT22;1721;51.238;9.562;2023-04-24T05:20:06;11.90;99.90
3416;DHT22;1721;51.238;9.562;2023-04-24T05:22:32;11.90;99.90
3416;DHT22;1721;51.238;9.562;2023-04-24T05:24:58;11.80;99.90
3416;DHT22;1721;51.238;9.562;2023-04-24T05:27:24;11.70;99.90
3416;DHT22;1721;51.238;9.562;2023-04-24T05:29:49;11.80;99.90
3416;DHT22;1721;51.238;9.562;2023-04-24T05:32:15;11.90;99.90
3416;DHT22;1721;51.238;9.562;2023-04-24T05:34:40;11.90;99.90
3416;DHT22;1721;51.238;9.562;2023-04-24T05:37:06;11.90;99.90
3416;DHT22;1721;51.238;9.562;2023-04-24T05:39:34;11.90;99.90
3416;DHT22;1721;51.238;9.562;2023-04-24T05:42:00;11.80;99.90
3416;DHT22;1721;51.238;9.562;2023-04-24T05:44:26;11.70;99.90
3416;DHT22;1721;51.238;9.562;2023-04-24T05:46:52;11.70;99.90
3416;DHT22;1721;51.238;9.562;2023-04-24T05:49:17;11.70;99.90
3416;DHT22;1721;51.238;9.562;2023-04-24T05:51:43;11.80;99.90
3416;DHT22;1721;51.238;9.562;2023-04-24T05:54:08;11.70;99.90
3416;DHT22;1721;51.238;9.562;2023-04-24T05:56:35;11.70;99.90
3416;DHT22;1721;51.238;9.562;2023-04-24T05:59:01;11.80;99.90
3416;DHT22;1721;51.238;9.562;2023-04-24T06:01:27;11.90;99.90
3416;DHT22;1721;51.238;9.562;2023-04-24T06:03:52;12.00;99.90
3416;DHT22;1721;51.238;9.562;2023-04-24T06:06:18;12.10;99.90
3416;DHT22;1721;51.238;9.562;2023-04-24T06:08:44;12.10;99.70
3416;DHT22;1721;51.238;9.562;2023-04-24T06:11:10;12.10;99.10
3416;DHT22;1721;51.238;9.562;2023-04-24T06:13:36;12.20;98.70
3416;DHT22;1721;51.238;9.562;2023-04-24T06:16:01;12.30;98.30
3416;DHT22;1721;51.238;9.562;2023-04-24T06:18:27;12.40;97.70
3416;DHT22;1721;51.238;9.562;2023-04-24T06:20:52;12.50;97.70
3416;DHT22;1721;51.238;9.562;2023-04-24T06:23:18;12.60;97.50
3416;DHT22;1721;51.238;9.562;2023-04-24T06:25:44;12.60;97.20
3416;DHT22;1721;51.238;9.562;2023-04-24T06:28:09;12.60;97.10
3416;DHT22;1721;51.238;9.562;2023-04-24T06:30:35;12.50;97.10
3416;DHT22;1721;51.238;9.562;2023-04-24T06:33:00;12.60;97.40
3416;DHT22;1721;51.238;9.562;2023-04-24T06:35:26;12.70;98.10
3416;DHT22;1721;51.238;9.562;2023-04-24T06:37:51;12.80;98.00
3416;DHT22;1721;51.238;9.562;2023-04-24T06:40:17;12.80;97.40
3416;DHT22;1721;51.238;9.562;2023-04-24T06:42:44;12.90;97.50
3416;DHT22;1721;51.238;9.562;2023-04-24T06:45:09;13.10;97.50
3416;DHT22;1721;51.238;9.562;2023-04-24T06:47:35;13.50;97.40
3416;DHT22;1721;51.238;9.562;2023-04-24T06:50:01;13.70;95.90
3416;DHT22;1721;51.238;9.562;2023-04-24T06:52:27;13.70;95.10
3416;DHT22;1721;51.238;9.562;2023-04-24T06:54:52;13.50;95.00
3416;DHT22;1721;51.238;9.562;2023-04-24T06:57:18;13.60;95.10
3416;DHT22;1721;51.238;9.562;2023-04-24T06:59:44;13.40;95.10
3416;DHT22;1721;51.238;9.562;2023-04-24T07:02:10;13.50;95.20
3416;DHT22;1721;51.238;9.562;2023-04-24T07:04:36;13.80;95.20
3416;DHT22;1721;51.238;9.562;2023-04-24T07:07:02;13.70;94.80
3416;DHT22;1721;51.238;9.562;2023-04-24T07:09:27;13.60;94.30
3416;DHT22;1721;51.238;9.562;2023-04-24T07:11:54;13.50;94.20
3416;DHT22;1721;51.238;9.562;2023-04-24T07:14:20;13.50;94.00
3416;DHT22;1721;51.238;9.562;2023-04-24T07:16:46;13.80;94.50
3416;DHT22;1721;51.238;9.562;2023-04-24T07:19:12;13.90;93.60
3416;DHT22;1721;51.238;9.562;2023-04-24T07:21:38;13.70;92.70
3416;DHT22;1721;51.238;9.562;2023-04-24T07:24:04;13.60;93.10
3416;DHT22;1721;51.238;9.562;2023-04-24T07:26:30;13.50;92.90
3416;DHT22;1721;51.238;9.562;2023-04-24T07:28:56;13.40;93.20
3416;DHT22;1721;51.238;9.562;2023-04-24T07:31:21;13.40;93.10
3416;DHT22;1721;51.238;9.562;2023-04-24T07:33:47;13.30;94.10
3416;DHT22;1721;51.238;9.562;2023-04-24T07:36:13;13.30;93.00
3416;DHT22;1721;51.238;9.562;2023-04-24T07:38:42;13.40;93.10
3416;DHT22;1721;51.238;9.562;2023-04-24T07:41:08;13.40;92.90
3416;DHT22;1721;51.238;9.562;2023-04-24T07:43:34;13.60;92.80
3416;DHT22;1721;51.238;9.562;2023-04-24T07:45:59;13.70;92.50
3416;DHT22;1721;51.238;9.562;2023-04-24T07:48:25;13.70;92.30
3416;DHT22;1721;51.238;9.562;2023-04-24T07:50:52;13.70;91.30
3416;DHT22;1721;51.238;9.562;2023-04-24T07:53:17;13.70;91.00
3416;DHT22;1721;51.238;9.562;2023-04-24T07:55:43;13.60;91.10
3416;DHT22;1721;51.238;9.562;2023-04-24T07:58:09;13.70;91.40
3416;DHT22;1721;51.238;9.562;2023-04-24T08:00:34;13.70;91.40
3416;DHT22;1721;51.238;9.562;2023-04-24T08:03:00;13.70;91.30
3416;DHT22;1721;51.238;9.562;2023-04-24T08:05:26;13.80;91.10
3416;DHT22;1721;51.238;9.562;2023-04-24T08:07:52;13.80;91.60
3416;DHT22;1721;51.238;9.562;2023-04-24T08:10:18;13.70;91.40
3416;DHT22;1721;51.238;9.562;2023-04-24T08:12:44;13.60;91.30
3416;DHT22;1721;51.238;9.562;2023-04-24T08:15:10;13.70;91.50
3416;DHT22;1721;51.238;9.562;2023-04-24T08:17:36;13.40;90.80
3416;DHT22;1721;51.238;9.562;2023-04-24T08:20:02;13.30;91.10
3416;DHT22;1721;51.238;9.562;2023-04-24T08:22:29;13.10;91.40
3416;DHT22;1721;51.238;9.562;2023-04-24T08:24:54;13.00;91.80
3416;DHT22;1721;51.238;9.562;2023-04-24T08:27:21;13.00;92.00
3416;DHT22;1721;51.238;9.562;2023-04-24T08:29:46;13.10;92.40
3416;DHT22;1721;51.238;9.562;2023-04-24T08:32:12;13.50;92.90
3416;DHT22;1721;51.238;9.562;2023-04-24T08:34:37;13.70;91.90
3416;DHT22;1721;51.238;9.562;2023-04-24T08:37:03;14.10;91.70
3416;DHT22;1721;51.238;9.562;2023-04-24T08:39:29;14.20;91.20
3416;DHT22;1721;51.238;9.562;2023-04-24T08:41:55;14.10;90.40
3416;DHT22;1721;51.238;9.562;2023-04-24T08:44:21;13.90;90.70
3416;DHT22;1721;51.238;9.562;2023-04-24T08:46:48;13.60;90.60
3416;DHT22;1721;51.238;9.562;2023-04-24T08:49:15;13.50;91.10
3416;DHT22;1721;51.238;9.562;2023-04-24T08:51:44;13.50;91.60
3416;DHT22;1721;51.238;9.562;2023-04-24T08:54:11;13.40;91.30
3416;DHT22;1721;51.238;9.562;2023-04-24T08:56:37;13.50;91.90
3416;DHT22;1721;51.238;9.562;2023-04-24T08:59:08;13.50;91.80
3416;DHT22;1721;51.238;9.562;2023-04-24T09:01:34;13.70;92.00
3416;DHT22;1721;51.238;9.562;2023-04-24T09:04:03;13.90;91.80
3416;DHT22;1721;51.238;9.562;2023-04-24T09:06:30;13.90;91.20
3416;DHT22;1721;51.238;9.562;2023-04-24T09:08:59;13.80;90.90
3416;DHT22;1721;51.238;9.562;2023-04-24T09:11:25;13.70;90.80
3416;DHT22;1721;51.238;9.562;2023-04-24T09:13:51;13.60;91.60
3416;DHT22;1721;51.238;9.562;2023-04-24T09:16:17;13.70;91.00
3416;DHT22;1721;51.238;9.562;2023-04-24T09:18:44;13.50;90.80
3416;DHT22;1721;51.238;9.562;2023-04-24T09:21:10;13.50;91.10
3416;DHT22;1721;51.238;9.562;2023-04-24T09:23:35;13.40;91.30
3416;DHT22;1721;51.238;9.562;2023-04-24T09:26:03;13.20;91.50
3416;DHT22;1721;51.238;9.562;2023-04-24T09:28:38;13.00;91.80
3416;DHT22;1721;51.238;9.562;2023-04-24T09:31:12;12.70;91.70
3416;DHT22;1721;51.238;9.562;2023-04-24T09:33:39;12.60;91.90
3416;DHT22;1721;51.238;9.562;2023-04-24T09:36:05;12.60;92.40
3416;DHT22;1721;51.238;9.562;2023-04-24T09:38:37;12.70;92.20
3416;DHT22;1721;51.238;9.562;2023-04-24T09:41:05;12.80;92.50
3416;DHT22;1721;51.238;9.562;2023-04-24T09:43:35;13.10;92.90
3416;DHT22;1721;51.238;9.562;2023-04-24T09:46:06;13.30;92.90
3416;DHT22;1721;51.238;9.562;2023-04-24T09:48:33;13.70;92.30
3416;DHT22;1721;51.238;9.562;2023-04-24T09:51:01;13.90;91.40
3416;DHT22;1721;51.238;9.562;2023-04-24T09:53:27;13.80;91.30
3416;DHT22;1721;51.238;9.562;2023-04-24T09:55:53;13.60;91.20
3416;DHT22;1721;51.238;9.562;2023-04-24T09:58:25;13.50;91.20
3416;DHT22;1721;51.238;9.562;2023-04-24T10:00:56;13.40;91.10
3416;DHT22;1721;51.238;9.562;2023-04-24T10:03:24;13.20;91.20
3416;DHT22;1721;51.238;9.562;2023-04-24T10:05:52;13.10;91.40
3416;DHT22;1721;51.238;9.562;2023-04-24T10:08:18;12.90;92.10
3416;DHT22;1721;51.238;9.562;2023-04-24T10:10:46;12.70;91.80
3416;DHT22;1721;51.238;9.562;2023-04-24T10:13:14;12.60;92.10
3416;DHT22;1721;51.238;9.562;2023-04-24T10:15:41;12.70;92.00
3416;DHT22;1721;51.238;9.562;2023-04-24T10:18:08;12.80;91.90
3416;DHT22;1721;51.238;9.562;2023-04-24T10:20:36;13.00;92.00
3416;DHT22;1721;51.238;9.562;2023-04-24T10:23:03;13.20;91.40
3416;DHT22;1721;51.238;9.562;2023-04-24T10:25:35;13.20;91.50
3416;DHT22;1721;51.238;9.562;2023-04-24T10:28:02;13.40;91.50
3416;DHT22;1721;51.238;9.562;2023-04-24T10:30:33;13.50;91.40
3416;DHT22;1721;51.238;9.562;2023-04-24T10:33:06;13.60;91.20
3416;DHT22;1721;51.238;9.562;2023-04-24T10:35:37;13.70;91.30
3416;DHT22;1721;51.238;9.562;2023-04-24T10:38:05;13.70;91.20
3416;DHT22;1721;51.238;9.562;2023-04-24T10:40:33;13.70;91.30
3416;DHT22;1721;51.238;9.562;2023-04-24T10:43:03;13.50;91.10
3416;DHT22;1721;51.238;9.562;2023-04-24T10:45:31;13.50;92.10
3416;DHT22;1721;51.238;9.562;2023-04-24T10:48:07;13.30;92.20
3416;DHT22;1721;51.238;9.562;2023-04-24T10:50:52;13.20;93.60
3416;DHT22;1721;51.238;9.562;2023-04-24T10:53:20;12.80;95.20
3416;DHT22;1721;51.238;9.562;2023-04-24T10:55:51;12.50;95.60
3416;DHT22;1721;51.238;9.562;2023-04-24T10:58:22;12.20;96.30
3416;DHT22;1721;51.238;9.562;2023-04-24T11:00:58;12.20;97.60
3416;DHT22;1721;51.238;9.562;2023-04-24T11:03:29;12.30;98.70
3416;DHT22;1721;51.238;9.562;2023-04-24T11:06:03;12.60;99.00
3416;DHT22;1721;51.238;9.562;2023-04-24T11:11:11;12.50;97.30
3416;DHT22;1721;51.238;9.562;2023-04-24T11:17:26;12.10;99.20
3416;DHT22;1721;51.238;9.562;2023-04-24T11:19:26;12.00;99.50
3416;DHT22;1721;51.238;9.562;2023-04-24T11:22:00;11.70;99.90
3416;DHT22;1721;51.238;9.562;2023-04-24T11:29:58;11.90;99.90
3416;DHT22;1721;51.238;9.562;2023-04-24T11:32:40;12.10;99.90
3416;DHT22;1721;51.238;9.562;2023-04-24T11:37:45;12.90;99.90
3416;DHT22;1721;51.238;9.562;2023-04-24T11:40:13;13.00;99.70
3416;DHT22;1721;51.238;9.562;2023-04-24T11:42:43;12.80;98.80
3416;DHT22;1721;51.238;9.562;2023-04-24T11:45:22;12.50;98.10
3416;DHT22;1721;51.238;9.562;2023-04-24T11:47:48;12.20;98.50
3416;DHT22;1721;51.238;9.562;2023-04-24T11:50:15;12.00;98.30
3416;DHT22;1721;51.238;9.562;2023-04-24T11:52:43;11.90;98.20
3416;DHT22;1721;51.238;9.562;2023-04-24T11:57:45;11.90;97.60
3416;DHT22;1721;51.238;9.562;2023-04-24T12:00:22;12.00;97.10
3416;DHT22;1721;51.238;9.562;2023-04-24T12:02:48;12.20;96.90
3416;DHT22;1721;51.238;9.562;2023-04-24T12:05:21;12.30;96.00
3416;DHT22;1721;51.238;9.562;2023-04-24T12:07:46;12.30;95.90
3416;DHT22;1721;51.238;9.562;2023-04-24T12:10:12;12.40;95.30
3416;DHT22;1721;51.238;9.562;2023-04-24T12:12:38;12.60;95.90
3416;DHT22;1721;51.238;9.562;2023-04-24T12:15:07;12.70;95.50
3416;DHT22;1721;51.238;9.562;2023-04-24T12:17:34;12.70;95.00
3416;DHT22;1721;51.238;9.562;2023-04-24T12:20:02;12.50;94.00
3416;DHT22;1721;51.238;9.562;2023-04-24T12:22:42;12.30;94.10
3416;DHT22;1721;51.238;9.562;2023-04-24T12:25:10;12.20;94.80
3416;DHT22;1721;51.238;9.562;2023-04-24T12:27:36;12.40;95.10
3416;DHT22;1721;51.238;9.562;2023-04-24T12:30:04;12.30;94.50
3416;DHT22;1721;51.238;9.562;2023-04-24T12:32:31;12.20;94.40
3416;DHT22;1721;51.238;9.562;2023-04-24T12:34:57;12.00;93.80
3416;DHT22;1721;51.238;9.562;2023-04-24T12:37:24;12.10;94.30
3416;DHT22;1721;51.238;9.562;2023-04-24T12:40:06;11.90;94.40
3416;DHT22;1721;51.238;9.562;2023-04-24T12:42:32;12.00;94.30
3416;DHT22;1721;51.238;9.562;2023-04-24T12:45:00;12.10;94.20
3416;DHT22;1721;51.238;9.562;2023-04-24T12:47:27;12.20;93.90
3416;DHT22;1721;51.238;9.562;2023-04-24T12:49:53;12.40;93.40
3416;DHT22;1721;51.238;9.562;2023-04-24T12:52:21;12.60;93.60
3416;DHT22;1721;51.238;9.562;2023-04-24T12:54:47;12.90;93.60
3416;DHT22;1721;51.238;9.562;2023-04-24T12:57:12;13.10;93.70
3416;DHT22;1721;51.238;9.562;2023-04-24T12:59:38;13.50;93.30
3416;DHT22;1721;51.238;9.562;2023-04-24T13:02:04;13.60;92.80
3416;DHT22;1721;51.238;9.562;2023-04-24T13:04:30;13.80;92.40
3416;DHT22;1721;51.238;9.562;2023-04-24T13:06:56;13.80;91.90
3416;DHT22;1721;51.238;9.562;2023-04-24T13:09:21;13.90;92.10
3416;DHT22;1721;51.238;9.562;2023-04-24T13:11:47;13.90;92.50
3416;DHT22;1721;51.238;9.562;2023-04-24T13:14:12;13.90;92.10
3416;DHT22;1721;51.238;9.562;2023-04-24T13:16:38;13.80;92.80
3416;DHT22;1721;51.238;9.562;2023-04-24T13:19:03;13.70;92.30
3416;DHT22;1721;51.238;9.562;2023-04-24T13:21:29;13.60;92.50
3416;DHT22;1721;51.238;9.562;2023-04-24T13:23:55;13.50;92.30
3416;DHT22;1721;51.238;9.562;2023-04-24T13:26:21;13.50;92.20
3416;DHT22;1721;51.238;9.562;2023-04-24T13:28:46;13.60;92.30
3416;DHT22;1721;51.238;9.562;2023-04-24T13:31:12;13.50;92.30
3416;DHT22;1721;51.238;9.562;2023-04-24T13:33:39;13.50;92.40
3416;DHT22;1721;51.238;9.562;2023-04-24T13:36:05;13.60;91.50
3416;DHT22;1721;51.238;9.562;2023-04-24T13:38:31;13.60;92.00
3416;DHT22;1721;51.238;9.562;2023-04-24T13:40:57;13.60;91.80
3416;DHT22;1721;51.238;9.562;2023-04-24T13:43:22;13.70;91.70
3416;DHT22;1721;51.238;9.562;2023-04-24T13:45:48;13.70;91.90
3416;DHT22;1721;51.238;9.562;2023-04-24T13:48:14;13.70;92.00
3416;DHT22;1721;51.238;9.562;2023-04-24T13:50:41;13.80;92.10
3416;DHT22;1721;51.238;9.562;2023-04-24T13:53:07;14.00;92.10
3416;DHT22;1721;51.238;9.562;2023-04-24T13:55:32;14.00;91.70
3416;DHT22;1721;51.238;9.562;2023-04-24T13:57:58;13.90;91.20
3416;DHT22;1721;51.238;9.562;2023-04-24T14:00:23;13.60;90.60
3416;DHT22;1721;51.238;9.562;2023-04-24T14:02:49;13.40;90.70
3416;DHT22;1721;51.238;9.562;2023-04-24T14:05:15;13.20;91.20
3416;DHT22;1721;51.238;9.562;2023-04-24T14:07:41;13.10;91.30
3416;DHT22;1721;51.238;9.562;2023-04-24T14:10:07;12.90;91.30
3416;DHT22;1721;51.238;9.562;2023-04-24T14:12:33;12.70;91.80
3416;DHT22;1721;51.238;9.562;2023-04-24T14:14:59;12.60;91.90
3416;DHT22;1721;51.238;9.562;2023-04-24T14:17:24;12.50;92.70
3416;DHT22;1721;51.238;9.562;2023-04-24T14:19:50;12.60;93.00
3416;DHT22;1721;51.238;9.562;2023-04-24T14:22:17;12.50;93.30
3416;DHT22;1721;51.238;9.562;2023-04-24T14:24:42;12.50;93.50
3416;DHT22;1721;51.238;9.562;2023-04-24T14:27:08;12.50;94.60
3416;DHT22;1721;51.238;9.562;2023-04-24T14:29:33;12.50;94.00
3416;DHT22;1721;51.238;9.562;2023-04-24T14:31:59;12.30;94.00
3416;DHT22;1721;51.238;9.562;2023-04-24T14:34:24;12.30;93.90
3416;DHT22;1721;51.238;9.562;2023-04-24T14:36:50;12.20;94.10
3416;DHT22;1721;51.238;9.562;2023-04-24T14:39:16;12.10;94.60
3416;DHT22;1721;51.238;9.562;2023-04-24T14:41:41;12.00;94.80
3416;DHT22;1721;51.238;9.562;2023-04-24T14:44:07;12.00;95.60
3416;DHT22;1721;51.238;9.562;2023-04-24T14:46:32;11.80;95.30
3416;DHT22;1721;51.238;9.562;2023-04-24T14:48:58;11.90;95.80
3416;DHT22;1721;51.238;9.562;2023-04-24T14:51:24;12.20;96.20
3416;DHT22;1721;51.238;9.562;2023-04-24T14:53:50;12.60;96.60
3416;DHT22;1721;51.238;9.562;2023-04-24T14:56:16;12.80;95.60
3416;DHT22;1721;51.238;9.562;2023-04-24T14:58:41;13.20;95.00
3416;DHT22;1721;51.238;9.562;2023-04-24T15:01:07;13.10;93.60
3416;DHT22;1721;51.238;9.562;2023-04-24T15:03:32;12.80;92.80
3416;DHT22;1721;51.238;9.562;2023-04-24T15:05:58;12.70;93.30
3416;DHT22;1721;51.238;9.562;2023-04-24T15:08:23;12.50;92.90
3416;DHT22;1721;51.238;9.562;2023-04-24T15:10:49;12.40;93.20
3416;DHT22;1721;51.238;9.562;2023-04-24T15:13:15;12.50;93.20
3416;DHT22;1721;51.238;9.562;2023-04-24T15:15:40;12.60;92.60
3416;DHT22;1721;51.238;9.562;2023-04-24T15:18:08;12.80;92.30
3416;DHT22;1721;51.238;9.562;2023-04-24T15:20:36;12.80;91.10
3416;DHT22;1721;51.238;9.562;2023-04-24T15:23:01;12.70;91.90
3416;DHT22;1721;51.238;9.562;2023-04-24T15:25:27;12.80;91.50
3416;DHT22;1721;51.238;9.562;2023-04-24T15:27:53;12.50;90.60
3416;DHT22;1721;51.238;9.562;2023-04-24T15:30:18;12.40;90.80
3416;DHT22;1721;51.238;9.562;2023-04-24T15:32:44;12.40;91.40
3416;DHT22;1721;51.238;9.562;2023-04-24T15:35:10;12.40;91.80
3416;DHT22;1721;51.238;9.562;2023-04-24T15:37:36;12.40;92.40
3416;DHT22;1721;51.238;9.562;2023-04-24T15:40:02;12.50;91.10
3416;DHT22;1721;51.238;9.562;2023-04-24T15:42:30;12.60;90.70
3416;DHT22;1721;51.238;9.562;2023-04-24T15:44:56;12.60;90.60
3416;DHT22;1721;51.238;9.562;2023-04-24T15:47:21;12.60;90.90
3416;DHT22;1721;51.238;9.562;2023-04-24T15:49:47;12.60;90.20
3416;DHT22;1721;51.238;9.562;2023-04-24T15:52:13;12.70;90.20
3416;DHT22;1721;51.238;9.562;2023-04-24T15:54:39;12.70;90.50
3416;DHT22;1721;51.238;9.562;2023-04-24T15:57:06;12.60;88.40
3416;DHT22;1721;51.238;9.562;2023-04-24T15:59:31;12.50;89.30
3416;DHT22;1721;51.238;9.562;2023-04-24T16:01:57;12.40;89.40
3416;DHT22;1721;51.238;9.562;2023-04-24T16:04:23;12.30;89.70
3416;DHT22;1721;51.238;9.562;2023-04-24T16:06:48;12.10;89.40
3416;DHT22;1721;51.238;9.562;2023-04-24T16:09:14;12.00;90.10
3416;DHT22;1721;51.238;9.562;2023-04-24T16:11:39;11.90;88.90
3416;DHT22;1721;51.238;9.562;2023-04-24T16:14:05;11.80;90.20